sensor_id;sensor_type;location;lat;lon;timestamp;pressure;altitude;pressure_sealevel;temperature;humidity
68889;BME280;55930;47.412;8.790;2023-02-11T00:00:48;96422.75;;;-3.63;100.00
68889;BME280;55930;47.412;8.790;2023-02-11T00:04:09;96428.94;;;-3.89;100.00
68889;BME280;55930;47.412;8.790;2023-02-11T00:07:30;96430.16;;;-3.86;100.00
68889;BME280;55930;47.412;8.790;2023-02-11T00:10:52;96421.97;;;-3.76;100.00
68889;BME280;55930;47.412;8.790;2023-02-11T00:14:13;96427.09;;;-3.88;100.00
68889;BME280;55930;47.412;8.790;2023-02-11T00:17:33;96424.06;;;-3.90;100.00
68889;BME280;55930;47.412;8.790;2023-02-11T00:20:54;96422.72;;;-3.75;100.00
68889;BME280;55930;47.412;8.790;2023-02-11T00:24:14;96419.03;;;-3.74;100.00
68889;BME280;55930;47.412;8.790;2023-02-11T00:27:35;96423.69;;;-3.80;100.00
68889;BME280;55930;47.412;8.790;2023-02-11T00:30:56;96425.13;;;-3.70;100.00
68889;BME280;55930;47.412;8.790;2023-02-11T00:34:17;96431.13;;;-3.78;100.00
68889;BME280;55930;47.412;8.790;2023-02-11T00:37:37;96427.91;;;-3.75;100.00
68889;BME280;55930;47.412;8.790;2023-02-11T00:40:58;96423.72;;;-3.68;100.00
68889;BME280;55930;47.412;8.790;2023-02-11T00:44:18;96429.19;;;-3.81;100.00
68889;BME280;55930;47.412;8.790;2023-02-11T00:47:38;96425.81;;;-3.82;100.00
68889;BME280;55930;47.412;8.790;2023-02-11T00:51:00;96424.97;;;-3.86;100.00
68889;BME280;55930;47.412;8.790;2023-02-11T00:54:23;96419.78;;;-3.86;100.00
68889;BME280;55930;47.412;8.790;2023-02-11T00:57:43;96415.44;;;-3.94;100.00
68889;BME280;55930;47.412;8.790;2023-02-11T01:01:04;96407.25;;;-3.84;100.00
68889;BME280;55930;47.412;8.790;2023-02-11T01:04:24;96403.91;;;-3.84;100.00
68889;BME280;55930;47.412;8.790;2023-02-11T01:07:44;96405.81;;;-3.94;100.00
68889;BME280;55930;47.412;8.790;2023-02-11T01:11:11;96396.22;;;-3.93;100.00
68889;BME280;55930;47.412;8.790;2023-02-11T01:14:32;96393.94;;;-3.95;100.00
68889;BME280;55930;47.412;8.790;2023-02-11T01:17:52;96392.50;;;-4.04;100.00
68889;BME280;55930;47.412;8.790;2023-02-11T01:21:13;96396.31;;;-3.90;100.00
68889;BME280;55930;47.412;8.790;2023-02-11T01:24:34;96389.19;;;-3.93;100.00
68889;BME280;55930;47.412;8.790;2023-02-11T01:27:54;96385.19;;;-3.90;100.00
68889;BME280;55930;47.412;8.790;2023-02-11T01:31:14;96381.28;;;-3.96;100.00
68889;BME280;55930;47.412;8.790;2023-02-11T01:34:35;96379.97;;;-4.02;100.00
68889;BME280;55930;47.412;8.790;2023-02-11T01:37:55;96365.50;;;-4.03;100.00
68889;BME280;55930;47.412;8.790;2023-02-11T01:41:16;96361.94;;;-4.11;100.00
68889;BME280;55930;47.412;8.790;2023-02-11T01:44:37;96362.38;;;-3.97;100.00
68889;BME280;55930;47.412;8.790;2023-02-11T01:47:59;96361.84;;;-4.02;100.00
68889;BME280;55930;47.412;8.790;2023-02-11T01:55:18;96354.03;;;-4.14;100.00
68889;BME280;55930;47.412;8.790;2023-02-11T01:59:03;96348.69;;;-4.30;100.00
68889;BME280;55930;47.412;8.790;2023-02-11T02:02:33;96346.91;;;-4.17;100.00
68889;BME280;55930;47.412;8.790;2023-02-11T02:06:02;96336.47;;;-4.30;100.00
68889;BME280;55930;47.412;8.790;2023-02-11T02:09:32;96331.34;;;-4.17;100.00
68889;BME280;55930;47.412;8.790;2023-02-11T02:12:56;96329.69;;;-4.01;100.00
68889;BME280;55930;47.412;8.790;2023-02-11T02:16:18;96331.81;;;-4.03;100.00
68889;BME280;55930;47.412;8.790;2023-02-11T02:23:34;96325.44;;;-4.06;100.00
68889;BME280;55930;47.412;8.790;2023-02-11T02:30:47;96326.34;;;-4.22;100.00
68889;BME280;55930;47.412;8.790;2023-02-11T02:37:51;96329.09;;;-4.07;100.00
68889;BME280;55930;47.412;8.790;2023-02-11T02:41:17;96326.41;;;-4.10;100.00
68889;BME280;55930;47.412;8.790;2023-02-11T02:44:38;96323.19;;;-4.07;100.00
68889;BME280;55930;47.412;8.790;2023-02-11T02:48:01;96320.78;;;-4.12;100.00
68889;BME280;55930;47.412;8.790;2023-02-11T02:51:46;96316.28;;;-4.36;100.00
68889;BME280;55930;47.412;8.790;2023-02-11T03:11:08;96331.72;;;-4.40;100.00
68889;BME280;55930;47.412;8.790;2023-02-11T03:14:31;96332.59;;;-4.36;100.00
68889;BME280;55930;47.412;8.790;2023-02-11T03:17:56;96324.56;;;-4.43;100.00
68889;BME280;55930;47.412;8.790;2023-02-11T03:21:18;96319.03;;;-4.53;100.00
68889;BME280;55930;47.412;8.790;2023-02-11T03:24:40;96310.66;;;-4.38;100.00
68889;BME280;55930;47.412;8.790;2023-02-11T03:28:32;96314.25;;;-4.31;100.00
68889;BME280;55930;47.412;8.790;2023-02-11T03:35:39;96304.66;;;-4.30;100.00
68889;BME280;55930;47.412;8.790;2023-02-11T03:39:02;96310.56;;;-4.42;100.00
68889;BME280;55930;47.412;8.790;2023-02-11T03:42:26;96298.06;;;-4.40;100.00
68889;BME280;55930;47.412;8.790;2023-02-11T03:45:51;96296.25;;;-4.60;100.00
68889;BME280;55930;47.412;8.790;2023-02-11T03:49:14;96294.09;;;-4.58;100.00
68889;BME280;55930;47.412;8.790;2023-02-11T03:52:39;96287.22;;;-4.75;100.00
68889;BME280;55930;47.412;8.790;2023-02-11T03:56:04;96286.16;;;-4.74;100.00
68889;BME280;55930;47.412;8.790;2023-02-11T03:59:35;96292.41;;;-4.75;100.00
68889;BME280;55930;47.412;8.790;2023-02-11T04:03:09;96304.84;;;-4.68;100.00
68889;BME280;55930;47.412;8.790;2023-02-11T04:06:31;96296.06;;;-4.76;100.00
68889;BME280;55930;47.412;8.790;2023-02-11T04:09:54;96287.47;;;-4.68;100.00
68889;BME280;55930;47.412;8.790;2023-02-11T04:13:14;96288.63;;;-4.77;100.00
68889;BME280;55930;47.412;8.790;2023-02-11T04:16:35;96289.88;;;-4.83;100.00
68889;BME280;55930;47.412;8.790;2023-02-11T04:19:55;96289.78;;;-4.87;100.00
68889;BME280;55930;47.412;8.790;2023-02-11T04:23:15;96294.19;;;-4.87;100.00
68889;BME280;55930;47.412;8.790;2023-02-11T04:26:36;96288.22;;;-4.67;100.00
68889;BME280;55930;47.412;8.790;2023-02-11T04:29:56;96286.84;;;-4.65;100.00
68889;BME280;55930;47.412;8.790;2023-02-11T04:33:17;96289.59;;;-4.49;100.00
68889;BME280;55930;47.412;8.790;2023-02-11T04:36:39;96289.63;;;-4.70;100.00
68889;BME280;55930;47.412;8.790;2023-02-11T04:40:00;96297.72;;;-4.71;100.00
68889;BME280;55930;47.412;8.790;2023-02-11T04:43:20;96289.63;;;-4.70;100.00
68889;BME280;55930;47.412;8.790;2023-02-11T04:46:41;96279.94;;;-4.60;100.00
68889;BME280;55930;47.412;8.790;2023-02-11T04:50:01;96281.25;;;-4.54;100.00
68889;BME280;55930;47.412;8.790;2023-02-11T04:53:22;96273.06;;;-4.56;100.00
68889;BME280;55930;47.412;8.790;2023-02-11T04:56:43;96282.00;;;-4.33;100.00
68889;BME280;55930;47.412;8.790;2023-02-11T05:00:06;96285.97;;;-4.36;100.00
68889;BME280;55930;47.412;8.790;2023-02-11T05:03:27;96280.25;;;-4.29;100.00
68889;BME280;55930;47.412;8.790;2023-02-11T05:06:47;96290.13;;;-4.55;100.00
68889;BME280;55930;47.412;8.790;2023-02-11T05:10:08;96287.09;;;-4.57;100.00
68889;BME280;55930;47.412;8.790;2023-02-11T05:13:29;96298.97;;;-4.56;100.00
68889;BME280;55930;47.412;8.790;2023-02-11T05:16:49;96310.84;;;-4.55;100.00
68889;BME280;55930;47.412;8.790;2023-02-11T05:20:10;96304.91;;;-4.56;100.00
68889;BME280;55930;47.412;8.790;2023-02-11T05:23:30;96312.97;;;-4.57;100.00
68889;BME280;55930;47.412;8.790;2023-02-11T05:26:50;96307.72;;;-4.49;100.00
68889;BME280;55930;47.412;8.790;2023-02-11T05:30:13;96300.09;;;-4.66;100.00
68889;BME280;55930;47.412;8.790;2023-02-11T05:33:34;96305.03;;;-4.73;100.00
68889;BME280;55930;47.412;8.790;2023-02-11T05:36:54;96304.22;;;-4.65;100.00
68889;BME280;55930;47.412;8.790;2023-02-11T05:40:15;96307.84;;;-4.45;100.00
68889;BME280;55930;47.412;8.790;2023-02-11T05:43:39;96320.44;;;-4.56;100.00
68889;BME280;55930;47.412;8.790;2023-02-11T05:46:59;96322.22;;;-4.36;100.00
68889;BME280;55930;47.412;8.790;2023-02-11T05:50:20;96336.00;;;-4.44;100.00
68889;BME280;55930;47.412;8.790;2023-02-11T05:53:40;96334.88;;;-4.76;100.00
68889;BME280;55930;47.412;8.790;2023-02-11T05:57:01;96342.19;;;-4.98;100.00
68889;BME280;55930;47.412;8.790;2023-02-11T06:00:21;96337.63;;;-5.22;100.00
68889;BME280;55930;47.412;8.790;2023-02-11T06:03:42;96333.78;;;-5.16;100.00
68889;BME280;55930;47.412;8.790;2023-02-11T06:07:03;96332.81;;;-5.03;100.00
68889;BME280;55930;47.412;8.790;2023-02-11T06:10:23;96334.94;;;-5.05;100.00
68889;BME280;55930;47.412;8.790;2023-02-11T06:13:43;96331.91;;;-5.07;100.00
68889;BME280;55930;47.412;8.790;2023-02-11T06:17:04;96336.13;;;-5.03;100.00
68889;BME280;55930;47.412;8.790;2023-02-11T06:20:24;96340.63;;;-5.12;100.00
68889;BME280;55930;47.412;8.790;2023-02-11T06:23:45;96337.22;;;-5.04;100.00
68889;BME280;55930;47.412;8.790;2023-02-11T06:27:05;96341.09;;;-4.89;100.00
68889;BME280;55930;47.412;8.790;2023-02-11T06:30:25;96336.97;;;-4.90;100.00
68889;BME280;55930;47.412;8.790;2023-02-11T06:33:46;96330.97;;;-4.82;100.00
68889;BME280;55930;47.412;8.790;2023-02-11T06:37:06;96335.25;;;-4.86;100.00
68889;BME280;55930;47.412;8.790;2023-02-11T06:40:27;96347.56;;;-4.83;100.00
68889;BME280;55930;47.412;8.790;2023-02-11T06:43:48;96343.66;;;-4.89;100.00
68889;BME280;55930;47.412;8.790;2023-02-11T06:47:09;96345.41;;;-5.02;100.00
68889;BME280;55930;47.412;8.790;2023-02-11T06:50:30;96342.19;;;-5.19;100.00
68889;BME280;55930;47.412;8.790;2023-02-11T06:53:50;96339.63;;;-4.98;100.00
68889;BME280;55930;47.412;8.790;2023-02-11T06:57:11;96340.56;;;-5.03;100.00
68889;BME280;55930;47.412;8.790;2023-02-11T07:00:31;96348.25;;;-4.94;100.00
68889;BME280;55930;47.412;8.790;2023-02-11T07:03:52;96334.69;;;-4.91;100.00
68889;BME280;55930;47.412;8.790;2023-02-11T07:07:12;96321.56;;;-4.66;100.00
68889;BME280;55930;47.412;8.790;2023-02-11T07:10:36;96322.91;;;-4.27;100.00
68889;BME280;55930;47.412;8.790;2023-02-11T07:14:07;96329.53;;;-4.05;100.00
68889;BME280;55930;47.412;8.790;2023-02-11T07:17:30;96325.03;;;-3.96;100.00
68889;BME280;55930;47.412;8.790;2023-02-11T07:20:55;96313.09;;;-3.52;100.00
68889;BME280;55930;47.412;8.790;2023-02-11T07:24:15;96321.00;;;-3.36;100.00
68889;BME280;55930;47.412;8.790;2023-02-11T07:27:35;96314.13;;;-3.89;100.00
68889;BME280;55930;47.412;8.790;2023-02-11T07:30:56;96306.03;;;-3.15;100.00
68889;BME280;55930;47.412;8.790;2023-02-11T07:34:16;96297.63;;;-2.44;97.56
68889;BME280;55930;47.412;8.790;2023-02-11T07:37:37;96296.94;;;-1.97;95.94
68889;BME280;55930;47.412;8.790;2023-02-11T07:41:02;96293.91;;;-1.01;91.70
68889;BME280;55930;47.412;8.790;2023-02-11T07:44:23;96296.97;;;-0.61;90.39
68889;BME280;55930;47.412;8.790;2023-02-11T07:47:43;96300.47;;;2.07;78.29
68889;BME280;55930;47.412;8.790;2023-02-11T07:54:32;96301.22;;;12.32;39.28
68889;BME280;55930;47.412;8.790;2023-02-11T07:57:52;96313.66;;;11.27;37.81
68889;BME280;55930;47.412;8.790;2023-02-11T08:01:21;96305.56;;;12.64;35.56
68889;BME280;55930;47.412;8.790;2023-02-11T08:04:47;96300.06;;;12.20;35.85
68889;BME280;55930;47.412;8.790;2023-02-11T08:08:07;96299.75;;;5.82;49.94
68889;BME280;55930;47.412;8.790;2023-02-11T08:11:28;96306.44;;;4.74;53.14
68889;BME280;55930;47.412;8.790;2023-02-11T08:14:48;96300.44;;;4.74;54.70
68889;BME280;55930;47.412;8.790;2023-02-11T08:18:09;96294.31;;;5.33;52.93
68889;BME280;55930;47.412;8.790;2023-02-11T08:21:31;96287.50;;;5.50;53.51
68889;BME280;55930;47.412;8.790;2023-02-11T08:24:52;96286.53;;;4.87;52.00
68889;BME280;55930;47.412;8.790;2023-02-11T08:28:12;96277.75;;;5.40;53.31
68889;BME280;55930;47.412;8.790;2023-02-11T08:31:35;96275.94;;;6.54;51.13
68889;BME280;55930;47.412;8.790;2023-02-11T08:34:55;96268.63;;;6.73;46.06
68889;BME280;55930;47.412;8.790;2023-02-11T08:38:16;96270.44;;;9.64;43.02
68889;BME280;55930;47.412;8.790;2023-02-11T08:41:38;96272.88;;;9.35;40.63
68889;BME280;55930;47.412;8.790;2023-02-11T08:44:59;96279.50;;;6.37;48.84
68889;BME280;55930;47.412;8.790;2023-02-11T08:48:19;96303.34;;;5.29;50.92
68889;BME280;55930;47.412;8.790;2023-02-11T08:51:40;96322.94;;;5.14;51.77
68889;BME280;55930;47.412;8.790;2023-02-11T08:55:01;96331.97;;;4.81;52.88
68889;BME280;55930;47.412;8.790;2023-02-11T08:58:22;96331.97;;;4.56;52.11
68889;BME280;55930;47.412;8.790;2023-02-11T09:01:42;96327.72;;;5.51;50.04
68889;BME280;55930;47.412;8.790;2023-02-11T09:05:03;96329.00;;;4.61;54.15
68889;BME280;55930;47.412;8.790;2023-02-11T09:08:23;96312.47;;;4.85;52.73
68889;BME280;55930;47.412;8.790;2023-02-11T09:11:44;96319.72;;;6.45;49.42
68889;BME280;55930;47.412;8.790;2023-02-11T09:15:07;96318.72;;;7.17;48.27
68889;BME280;55930;47.412;8.790;2023-02-11T09:18:31;96318.00;;;6.21;49.98
68889;BME280;55930;47.412;8.790;2023-02-11T09:21:51;96308.78;;;5.88;50.67
68889;BME280;55930;47.412;8.790;2023-02-11T09:25:14;96308.59;;;8.84;45.80
68889;BME280;55930;47.412;8.790;2023-02-11T09:28:34;96284.78;;;8.11;45.18
68889;BME280;55930;47.412;8.790;2023-02-11T09:31:55;96289.44;;;7.99;47.70
68889;BME280;55930;47.412;8.790;2023-02-11T09:35:15;96289.84;;;12.32;36.87
68889;BME280;55930;47.412;8.790;2023-02-11T09:38:36;96299.19;;;16.27;31.56
68889;BME280;55930;47.412;8.790;2023-02-11T09:45:20;96304.34;;;15.89;31.23
68889;BME280;55930;47.412;8.790;2023-02-11T09:48:43;96302.00;;;10.11;40.84
68889;BME280;55930;47.412;8.790;2023-02-11T09:52:10;96300.88;;;9.56;43.88
68889;BME280;55930;47.412;8.790;2023-02-11T09:55:37;96307.88;;;10.54;40.81
68889;BME280;55930;47.412;8.790;2023-02-11T09:58:58;96306.75;;;12.25;39.29
68889;BME280;55930;47.412;8.790;2023-02-11T10:02:25;96316.22;;;10.20;42.54
68889;BME280;55930;47.412;8.790;2023-02-11T10:12:58;96295.00;;;7.14;49.89
68889;BME280;55930;47.412;8.790;2023-02-11T10:23:56;96282.22;;;6.23;54.14
68889;BME280;55930;47.412;8.790;2023-02-11T10:27:21;96284.59;;;6.55;52.85
68889;BME280;55930;47.412;8.790;2023-02-11T10:31:03;96279.75;;;6.53;53.52
68889;BME280;55930;47.412;8.790;2023-02-11T10:34:26;96290.69;;;7.27;51.54
68889;BME280;55930;47.412;8.790;2023-02-11T10:37:47;96294.25;;;7.78;52.94
68889;BME280;55930;47.412;8.790;2023-02-11T10:41:12;96305.56;;;7.48;54.01
68889;BME280;55930;47.412;8.790;2023-02-11T10:44:43;96309.22;;;7.23;54.16
68889;BME280;55930;47.412;8.790;2023-02-11T10:48:43;96297.06;;;7.33;53.08
68889;BME280;55930;47.412;8.790;2023-02-11T10:55:34;96285.97;;;10.34;48.69
68889;BME280;55930;47.412;8.790;2023-02-11T10:59:12;96274.19;;;14.42;37.37
68889;BME280;55930;47.412;8.790;2023-02-11T11:02:35;96272.00;;;12.67;41.47
68889;BME280;55930;47.412;8.790;2023-02-11T11:06:00;96273.66;;;12.01;41.08
68889;BME280;55930;47.412;8.790;2023-02-11T11:09:34;96268.75;;;10.42;44.33
68889;BME280;55930;47.412;8.790;2023-02-11T11:13:02;96272.34;;;10.81;43.22
68889;BME280;55930;47.412;8.790;2023-02-11T11:16:31;96270.41;;;10.97;43.22
68889;BME280;55930;47.412;8.790;2023-02-11T11:19:52;96272.28;;;12.21;42.75
68889;BME280;55930;47.412;8.790;2023-02-11T11:23:18;96270.50;;;13.34;38.82
68889;BME280;55930;47.412;8.790;2023-02-11T11:26:55;96264.47;;;14.76;39.26
68889;BME280;55930;47.412;8.790;2023-02-11T11:30:16;96250.63;;;19.45;27.69
68889;BME280;55930;47.412;8.790;2023-02-11T11:33:40;96242.13;;;20.52;26.88
68889;BME280;55930;47.412;8.790;2023-02-11T11:37:29;96229.81;;;22.72;23.24
68889;BME280;55930;47.412;8.790;2023-02-11T11:44:35;96219.16;;;21.60;23.18
68889;BME280;55930;47.412;8.790;2023-02-11T11:48:13;96210.97;;;23.13;21.87
68889;BME280;55930;47.412;8.790;2023-02-11T11:51:41;96203.84;;;23.81;21.07
68889;BME280;55930;47.412;8.790;2023-02-11T11:58:39;96191.88;;;24.19;21.48
68889;BME280;55930;47.412;8.790;2023-02-11T12:05:49;96165.19;;;20.56;23.95
68889;BME280;55930;47.412;8.790;2023-02-11T12:09:35;96160.09;;;22.42;22.96
68889;BME280;55930;47.412;8.790;2023-02-11T12:16:39;96131.78;;;22.49;22.04
68889;BME280;55930;47.412;8.790;2023-02-11T12:20:22;96150.81;;;22.21;22.16
68889;BME280;55930;47.412;8.790;2023-02-11T12:24:39;96143.31;;;21.53;22.43
68889;BME280;55930;47.412;8.790;2023-02-11T12:27:53;96222.38;;;16.33;27.92
68889;BME280;55930;47.412;8.790;2023-02-11T12:42:32;96144.16;;;22.28;21.52
68889;BME280;55930;47.412;8.790;2023-02-11T12:46:35;96155.47;;;22.26;20.77
68889;BME280;55930;47.412;8.790;2023-02-11T12:50:26;96162.13;;;22.88;20.18
68889;BME280;55930;47.412;8.790;2023-02-11T12:57:31;96169.94;;;19.82;22.79
68889;BME280;55930;47.412;8.790;2023-02-11T13:01:03;96180.84;;;21.90;20.68
68889;BME280;55930;47.412;8.790;2023-02-11T13:04:43;96177.78;;;22.43;20.54
68889;BME280;55930;47.412;8.790;2023-02-11T13:08:18;96191.97;;;22.61;20.34
68889;BME280;55930;47.412;8.790;2023-02-11T13:11:43;96189.75;;;20.16;22.45
68889;BME280;55930;47.412;8.790;2023-02-11T13:15:14;96190.72;;;22.73;21.34
68889;BME280;55930;47.412;8.790;2023-02-11T13:26:18;96191.09;;;19.95;22.69
68889;BME280;55930;47.412;8.790;2023-02-11T13:33:41;96199.56;;;13.99;30.56
68889;BME280;55930;47.412;8.790;2023-02-11T13:37:05;96193.22;;;17.42;27.06
68889;BME280;55930;47.412;8.790;2023-02-11T13:40:36;96190.44;;;18.70;24.30
68889;BME280;55930;47.412;8.790;2023-02-11T13:44:21;96180.88;;;20.10;23.80
68889;BME280;55930;47.412;8.790;2023-02-11T13:47:41;96178.72;;;18.33;24.34
68889;BME280;55930;47.412;8.790;2023-02-11T13:51:07;96180.97;;;20.86;22.44
68889;BME280;55930;47.412;8.790;2023-02-11T13:54:33;96188.34;;;18.05;25.21
68889;BME280;55930;47.412;8.790;2023-02-11T14:01:37;96182.84;;;19.72;23.36
68889;BME280;55930;47.412;8.790;2023-02-11T14:05:15;96182.41;;;18.76;23.96
68889;BME280;55930;47.412;8.790;2023-02-11T14:12:24;96180.59;;;17.92;26.50
68889;BME280;55930;47.412;8.790;2023-02-11T14:16:06;96172.25;;;14.53;29.77
68889;BME280;55930;47.412;8.790;2023-02-11T14:19:55;96170.41;;;14.13;30.69
68889;BME280;55930;47.412;8.790;2023-02-11T14:23:22;96168.00;;;16.66;28.00
68889;BME280;55930;47.412;8.790;2023-02-11T14:27:13;96170.97;;;16.20;28.67
68889;BME280;55930;47.412;8.790;2023-02-11T14:31:09;96171.16;;;15.32;29.97
68889;BME280;55930;47.412;8.790;2023-02-11T14:41:43;96174.00;;;13.39;32.01
68889;BME280;55930;47.412;8.790;2023-02-11T14:45:07;96167.28;;;13.66;32.71
68889;BME280;55930;47.412;8.790;2023-02-11T14:48:34;96169.56;;;12.93;33.25
68889;BME280;55930;47.412;8.790;2023-02-11T14:52:03;96167.38;;;13.00;33.27
68889;BME280;55930;47.412;8.790;2023-02-11T14:55:31;96173.63;;;12.29;34.52
68889;BME280;55930;47.412;8.790;2023-02-11T14:58:54;96180.69;;;12.79;34.13
68889;BME280;55930;47.412;8.790;2023-02-11T15:02:22;96179.84;;;11.75;37.00
68889;BME280;55930;47.412;8.790;2023-02-11T15:05:43;96175.69;;;12.12;35.04
68889;BME280;55930;47.412;8.790;2023-02-11T15:09:05;96174.28;;;11.57;37.11
68889;BME280;55930;47.412;8.790;2023-02-11T15:12:29;96169.91;;;10.83;37.99
68889;BME280;55930;47.412;8.790;2023-02-11T15:15:49;96172.84;;;11.01;38.24
68889;BME280;55930;47.412;8.790;2023-02-11T15:19:36;96175.22;;;10.06;40.61
68889;BME280;55930;47.412;8.790;2023-02-11T15:23:00;96169.00;;;9.80;40.77
68889;BME280;55930;47.412;8.790;2023-02-11T15:26:22;96173.97;;;9.94;40.85
68889;BME280;55930;47.412;8.790;2023-02-11T15:29:47;96176.84;;;9.67;40.70
68889;BME280;55930;47.412;8.790;2023-02-11T15:33:21;96184.38;;;8.77;43.48
68889;BME280;55930;47.412;8.790;2023-02-11T15:36:42;96178.13;;;8.67;42.36
68889;BME280;55930;47.412;8.790;2023-02-11T15:40:17;96181.75;;;8.54;43.42
68889;BME280;55930;47.412;8.790;2023-02-11T15:43:44;96172.72;;;8.04;44.56
68889;BME280;55930;47.412;8.790;2023-02-11T15:47:09;96173.00;;;8.10;46.95
68889;BME280;55930;47.412;8.790;2023-02-11T15:50:34;96170.94;;;7.98;46.39
68889;BME280;55930;47.412;8.790;2023-02-11T15:54:16;96184.91;;;7.72;48.19
68889;BME280;55930;47.412;8.790;2023-02-11T15:57:43;96171.75;;;7.68;50.70
68889;BME280;55930;47.412;8.790;2023-02-11T16:01:06;96173.69;;;7.37;54.23
68889;BME280;55930;47.412;8.790;2023-02-11T16:04:27;96181.97;;;7.09;55.21
68889;BME280;55930;47.412;8.790;2023-02-11T16:07:49;96186.78;;;6.83;57.51
68889;BME280;55930;47.412;8.790;2023-02-11T16:11:31;96190.50;;;6.48;60.51
68889;BME280;55930;47.412;8.790;2023-02-11T16:14:52;96187.34;;;6.27;59.18
68889;BME280;55930;47.412;8.790;2023-02-11T16:18:36;96192.03;;;6.01;59.83
68889;BME280;55930;47.412;8.790;2023-02-11T16:22:07;96191.34;;;5.28;64.18
68889;BME280;55930;47.412;8.790;2023-02-11T16:25:34;96192.06;;;5.35;64.09
68889;BME280;55930;47.412;8.790;2023-02-11T16:32:28;96201.34;;;4.56;67.02
68889;BME280;55930;47.412;8.790;2023-02-11T16:35:49;96205.13;;;4.38;67.43
68889;BME280;55930;47.412;8.790;2023-02-11T16:39:11;96202.53;;;4.20;69.06
68889;BME280;55930;47.412;8.790;2023-02-11T16:42:31;96200.66;;;3.89;70.10
68889;BME280;55930;47.412;8.790;2023-02-11T16:45:54;96193.16;;;3.91;70.38
68889;BME280;55930;47.412;8.790;2023-02-11T16:49:39;96194.53;;;3.31;73.87
68889;BME280;55930;47.412;8.790;2023-02-11T16:53:00;96201.50;;;2.95;77.16
68889;BME280;55930;47.412;8.790;2023-02-11T16:56:25;96186.53;;;2.92;75.95
68889;BME280;55930;47.412;8.790;2023-02-11T16:59:46;96195.41;;;2.66;77.69
68889;BME280;55930;47.412;8.790;2023-02-11T17:03:07;96193.75;;;2.41;80.18
68889;BME280;55930;47.412;8.790;2023-02-11T17:06:32;96187.28;;;2.24;80.52
68889;BME280;55930;47.412;8.790;2023-02-11T17:09:52;96195.38;;;2.08;80.77
68889;BME280;55930;47.412;8.790;2023-02-11T17:13:13;96196.13;;;2.09;80.60
68889;BME280;55930;47.412;8.790;2023-02-11T17:16:33;96199.75;;;1.93;81.38
68889;BME280;55930;47.412;8.790;2023-02-11T17:19:54;96208.47;;;2.05;80.28
68889;BME280;55930;47.412;8.790;2023-02-11T17:23:14;96219.13;;;1.85;82.23
68889;BME280;55930;47.412;8.790;2023-02-11T17:26:35;96212.91;;;1.60;82.66
68889;BME280;55930;47.412;8.790;2023-02-11T17:29:56;96227.25;;;1.73;81.48
68889;BME280;55930;47.412;8.790;2023-02-11T17:33:16;96235.75;;;1.63;81.25
68889;BME280;55930;47.412;8.790;2023-02-11T17:36:38;96247.38;;;1.32;85.19
68889;BME280;55930;47.412;8.790;2023-02-11T17:40:00;96244.59;;;1.18;85.46
68889;BME280;55930;47.412;8.790;2023-02-11T17:43:20;96241.25;;;1.21;86.31
68889;BME280;55930;47.412;8.790;2023-02-11T17:46:41;96245.78;;;1.24;84.73
68889;BME280;55930;47.412;8.790;2023-02-11T17:50:02;96256.50;;;1.15;85.17
68889;BME280;55930;47.412;8.790;2023-02-11T17:53:23;96253.69;;;1.31;84.56
68889;BME280;55930;47.412;8.790;2023-02-11T17:56:44;96257.94;;;1.09;85.78
68889;BME280;55930;47.412;8.790;2023-02-11T18:00:05;96258.06;;;0.90;87.59
68889;BME280;55930;47.412;8.790;2023-02-11T18:03:26;96255.50;;;0.67;89.21
68889;BME280;55930;47.412;8.790;2023-02-11T18:06:49;96261.94;;;0.47;91.43
68889;BME280;55930;47.412;8.790;2023-02-11T18:10:12;96263.69;;;0.40;91.49
68889;BME280;55930;47.412;8.790;2023-02-11T18:13:33;96265.47;;;0.35;91.62
68889;BME280;55930;47.412;8.790;2023-02-11T18:16:54;96264.44;;;0.40;90.96
68889;BME280;55930;47.412;8.790;2023-02-11T18:20:17;96267.41;;;0.65;89.97
68889;BME280;55930;47.412;8.790;2023-02-11T18:23:38;96271.81;;;0.34;91.67
68889;BME280;55930;47.412;8.790;2023-02-11T18:26:58;96271.00;;;0.30;92.63
68889;BME280;55930;47.412;8.790;2023-02-11T18:30:20;96278.00;;;0.26;92.11
68889;BME280;55930;47.412;8.790;2023-02-11T18:33:41;96279.00;;;0.18;93.49
68889;BME280;55930;47.412;8.790;2023-02-11T18:37:02;96279.94;;;0.07;95.81
68889;BME280;55930;47.412;8.790;2023-02-11T18:40:22;96284.09;;;-0.12;95.61
68889;BME280;55930;47.412;8.790;2023-02-11T18:43:43;96285.66;;;-0.07;95.21
68889;BME280;55930;47.412;8.790;2023-02-11T18:47:04;96282.72;;;-0.06;94.12
68889;BME280;55930;47.412;8.790;2023-02-11T18:50:24;96271.28;;;0.03;93.22
68889;BME280;55930;47.412;8.790;2023-02-11T18:53:47;96281.56;;;-0.08;94.31
68889;BME280;55930;47.412;8.790;2023-02-11T18:57:09;96278.06;;;-0.16;94.44
68889;BME280;55930;47.412;8.790;2023-02-11T19:00:30;96283.88;;;-0.03;93.45
68889;BME280;55930;47.412;8.790;2023-02-11T19:03:51;96287.44;;;-0.34;96.65
68889;BME280;55930;47.412;8.790;2023-02-11T19:07:12;96298.13;;;-0.39;97.63
68889;BME280;55930;47.412;8.790;2023-02-11T19:10:44;96298.06;;;-0.43;98.04
68889;BME280;55930;47.412;8.790;2023-02-11T19:14:04;96305.00;;;-0.50;99.21
68889;BME280;55930;47.412;8.790;2023-02-11T19:17:29;96309.19;;;-0.65;100.00
68889;BME280;55930;47.412;8.790;2023-02-11T19:20:49;96315.41;;;-0.69;100.00
68889;BME280;55930;47.412;8.790;2023-02-11T19:24:11;96311.09;;;-0.62;99.77
68889;BME280;55930;47.412;8.790;2023-02-11T19:27:34;96312.00;;;-0.73;100.00
68889;BME280;55930;47.412;8.790;2023-02-11T19:30:55;96315.28;;;-0.57;100.00
68889;BME280;55930;47.412;8.790;2023-02-11T19:34:16;96319.94;;;-0.66;100.00
68889;BME280;55930;47.412;8.790;2023-02-11T19:37:39;96326.63;;;-0.50;99.83
68889;BME280;55930;47.412;8.790;2023-02-11T19:41:00;96323.97;;;-0.30;98.13
68889;BME280;55930;47.412;8.790;2023-02-11T19:44:21;96310.41;;;-0.20;96.71
68889;BME280;55930;47.412;8.790;2023-02-11T19:47:41;96317.66;;;-0.10;95.83
68889;BME280;55930;47.412;8.790;2023-02-11T19:51:08;96317.25;;;-0.12;94.66
68889;BME280;55930;47.412;8.790;2023-02-11T19:54:29;96312.47;;;-0.29;96.46
68889;BME280;55930;47.412;8.790;2023-02-11T19:57:49;96302.31;;;-0.54;99.11
68889;BME280;55930;47.412;8.790;2023-02-11T20:01:12;96301.38;;;-0.65;100.00